sensor_id;sensor_type;location;lat;lon;timestamp;temperature;humidity
36990;DHT22;22898;52.102;5.776;2023-04-03T00:00:29;10.40;90.50
36990;DHT22;22898;52.102;5.776;2023-04-03T00:02:54;10.30;90.50
36990;DHT22;22898;52.102;5.776;2023-04-03T00:05:20;10.40;90.50
36990;DHT22;22898;52.102;5.776;2023-04-03T00:07:46;10.30;90.60
36990;DHT22;22898;52.102;5.776;2023-04-03T00:10:11;10.40;90.60
36990;DHT22;22898;52.102;5.776;2023-04-03T00:12:37;10.20;90.70
36990;DHT22;22898;52.102;5.776;2023-04-03T00:15:03;10.20;90.80
36990;DHT22;22898;52.102;5.776;2023-04-03T00:17:29;10.30;91.10
36990;DHT22;22898;52.102;5.776;2023-04-03T00:19:54;10.30;90.70
36990;DHT22;22898;52.102;5.776;2023-04-03T00:22:20;10.30;90.80
36990;DHT22;22898;52.102;5.776;2023-04-03T00:24:46;10.30;90.70
36990;DHT22;22898;52.102;5.776;2023-04-03T00:27:11;10.20;90.50
36990;DHT22;22898;52.102;5.776;2023-04-03T00:29:37;9.90;90.60
36990;DHT22;22898;52.102;5.776;2023-04-03T00:32:02;9.70;91.10
36990;DHT22;22898;52.102;5.776;2023-04-03T00:34:28;9.70;91.30
36990;DHT22;22898;52.102;5.776;2023-04-03T00:36:53;9.60;91.20
36990;DHT22;22898;52.102;5.776;2023-04-03T00:39:19;9.30;91.50
36990;DHT22;22898;52.102;5.776;2023-04-03T00:41:45;9.10;91.80
36990;DHT22;22898;52.102;5.776;2023-04-03T00:47:06;8.90;92.20
36990;DHT22;22898;52.102;5.776;2023-04-03T00:49:32;9.10;92.40
36990;DHT22;22898;52.102;5.776;2023-04-03T00:51:58;9.00;92.30
36990;DHT22;22898;52.102;5.776;2023-04-03T00:54:24;8.70;92.50
36990;DHT22;22898;52.102;5.776;2023-04-03T00:56:51;8.60;93.00
36990;DHT22;22898;52.102;5.776;2023-04-03T00:59:23;8.60;93.00
36990;DHT22;22898;52.102;5.776;2023-04-03T01:01:53;8.70;92.90
36990;DHT22;22898;52.102;5.776;2023-04-03T01:04:47;8.70;92.70
36990;DHT22;22898;52.102;5.776;2023-04-03T01:07:21;8.70;92.70
36990;DHT22;22898;52.102;5.776;2023-04-03T01:09:48;8.80;92.70
36990;DHT22;22898;52.102;5.776;2023-04-03T01:14:46;8.90;92.70
36990;DHT22;22898;52.102;5.776;2023-04-03T01:17:41;8.90;92.70
36990;DHT22;22898;52.102;5.776;2023-04-03T01:20:19;8.90;92.70
36990;DHT22;22898;52.102;5.776;2023-04-03T01:28:13;8.70;93.10
36990;DHT22;22898;52.102;5.776;2023-04-03T01:31:10;8.30;93.40
36990;DHT22;22898;52.102;5.776;2023-04-03T01:33:38;8.20;93.90
36990;DHT22;22898;52.102;5.776;2023-04-03T01:36:04;8.30;93.90
36990;DHT22;22898;52.102;5.776;2023-04-03T01:38:30;8.20;93.90
36990;DHT22;22898;52.102;5.776;2023-04-03T01:40:56;8.10;94.30
36990;DHT22;22898;52.102;5.776;2023-04-03T01:43:21;8.40;94.10
36990;DHT22;22898;52.102;5.776;2023-04-03T01:45:47;8.40;94.00
36990;DHT22;22898;52.102;5.776;2023-04-03T01:48:14;8.40;94.00
36990;DHT22;22898;52.102;5.776;2023-04-03T01:50:40;8.60;94.10
36990;DHT22;22898;52.102;5.776;2023-04-03T01:53:06;8.70;93.60
36990;DHT22;22898;52.102;5.776;2023-04-03T01:55:32;8.60;93.70
36990;DHT22;22898;52.102;5.776;2023-04-03T01:57:57;8.70;93.80
36990;DHT22;22898;52.102;5.776;2023-04-03T02:00:23;8.80;93.70
36990;DHT22;22898;52.102;5.776;2023-04-03T02:02:49;9.00;93.70
36990;DHT22;22898;52.102;5.776;2023-04-03T02:05:15;9.10;93.40
36990;DHT22;22898;52.102;5.776;2023-04-03T02:07:40;9.10;93.30
36990;DHT22;22898;52.102;5.776;2023-04-03T02:10:06;9.00;93.50
36990;DHT22;22898;52.102;5.776;2023-04-03T02:12:32;9.00;93.40
36990;DHT22;22898;52.102;5.776;2023-04-03T02:14:58;9.00;93.50
36990;DHT22;22898;52.102;5.776;2023-04-03T02:17:23;8.80;93.60
36990;DHT22;22898;52.102;5.776;2023-04-03T02:19:49;8.50;94.00
36990;DHT22;22898;52.102;5.776;2023-04-03T02:22:14;8.50;94.40
36990;DHT22;22898;52.102;5.776;2023-04-03T02:24:40;8.70;94.30
36990;DHT22;22898;52.102;5.776;2023-04-03T02:27:06;8.90;94.00
36990;DHT22;22898;52.102;5.776;2023-04-03T02:29:32;8.90;94.00
36990;DHT22;22898;52.102;5.776;2023-04-03T02:31:57;9.00;94.00
36990;DHT22;22898;52.102;5.776;2023-04-03T02:34:23;9.20;93.90
36990;DHT22;22898;52.102;5.776;2023-04-03T02:36:48;9.30;93.70
36990;DHT22;22898;52.102;5.776;2023-04-03T02:39:14;9.40;93.50
36990;DHT22;22898;52.102;5.776;2023-04-03T02:41:40;9.40;93.40
36990;DHT22;22898;52.102;5.776;2023-04-03T02:44:07;9.50;93.40
36990;DHT22;22898;52.102;5.776;2023-04-03T02:46:34;9.40;93.70
36990;DHT22;22898;52.102;5.776;2023-04-03T02:48:59;9.40;93.70
36990;DHT22;22898;52.102;5.776;2023-04-03T02:51:25;9.50;93.30
36990;DHT22;22898;52.102;5.776;2023-04-03T02:53:50;9.60;93.30
36990;DHT22;22898;52.102;5.776;2023-04-03T02:56:17;9.70;93.20
36990;DHT22;22898;52.102;5.776;2023-04-03T02:58:43;9.80;93.10
36990;DHT22;22898;52.102;5.776;2023-04-03T03:01:09;9.80;93.00
36990;DHT22;22898;52.102;5.776;2023-04-03T03:03:35;9.70;92.90
36990;DHT22;22898;52.102;5.776;2023-04-03T03:08:28;9.50;93.40
36990;DHT22;22898;52.102;5.776;2023-04-03T03:10:53;9.30;93.40
36990;DHT22;22898;52.102;5.776;2023-04-03T03:13:19;9.20;93.80
36990;DHT22;22898;52.102;5.776;2023-04-03T03:15:44;9.20;93.90
36990;DHT22;22898;52.102;5.776;2023-04-03T03:18:10;9.20;93.80
36990;DHT22;22898;52.102;5.776;2023-04-03T03:20:35;9.30;93.80
36990;DHT22;22898;52.102;5.776;2023-04-03T03:23:01;9.30;93.80
36990;DHT22;22898;52.102;5.776;2023-04-03T03:25:26;9.30;93.80
36990;DHT22;22898;52.102;5.776;2023-04-03T03:27:52;9.40;93.70
36990;DHT22;22898;52.102;5.776;2023-04-03T03:30:18;9.40;93.60
36990;DHT22;22898;52.102;5.776;2023-04-03T03:32:44;9.50;93.50
36990;DHT22;22898;52.102;5.776;2023-04-03T03:35:10;9.30;93.80
36990;DHT22;22898;52.102;5.776;2023-04-03T03:37:35;9.20;93.90
36990;DHT22;22898;52.102;5.776;2023-04-03T03:40:01;9.20;94.00
36990;DHT22;22898;52.102;5.776;2023-04-03T03:42:27;9.30;93.90
36990;DHT22;22898;52.102;5.776;2023-04-03T03:44:52;9.30;93.90
36990;DHT22;22898;52.102;5.776;2023-04-03T03:47:18;9.20;94.10
36990;DHT22;22898;52.102;5.776;2023-04-03T03:49:44;9.20;94.10
36990;DHT22;22898;52.102;5.776;2023-04-03T03:52:09;9.40;93.90
36990;DHT22;22898;52.102;5.776;2023-04-03T03:54:36;9.40;93.70
36990;DHT22;22898;52.102;5.776;2023-04-03T03:57:02;9.40;93.70
36990;DHT22;22898;52.102;5.776;2023-04-03T03:59:28;9.10;93.90
36990;DHT22;22898;52.102;5.776;2023-04-03T04:01:53;9.00;94.20
36990;DHT22;22898;52.102;5.776;2023-04-03T04:04:19;8.80;94.20
36990;DHT22;22898;52.102;5.776;2023-04-03T04:06:45;8.70;94.60
36990;DHT22;22898;52.102;5.776;2023-04-03T04:09:10;8.70;94.70
36990;DHT22;22898;52.102;5.776;2023-04-03T04:11:36;8.90;94.60
36990;DHT22;22898;52.102;5.776;2023-04-03T04:14:02;8.80;94.60
36990;DHT22;22898;52.102;5.776;2023-04-03T04:16:27;8.70;94.60
36990;DHT22;22898;52.102;5.776;2023-04-03T04:18:53;8.60;94.60
36990;DHT22;22898;52.102;5.776;2023-04-03T04:21:21;8.50;95.00
36990;DHT22;22898;52.102;5.776;2023-04-03T04:23:47;8.50;95.20
36990;DHT22;22898;52.102;5.776;2023-04-03T04:26:12;8.60;95.10
36990;DHT22;22898;52.102;5.776;2023-04-03T04:28:38;8.70;94.90
36990;DHT22;22898;52.102;5.776;2023-04-03T04:31:04;8.50;94.90
36990;DHT22;22898;52.102;5.776;2023-04-03T04:33:29;8.20;95.20
36990;DHT22;22898;52.102;5.776;2023-04-03T04:35:55;8.00;95.60
36990;DHT22;22898;52.102;5.776;2023-04-03T04:38:21;8.00;95.90
36990;DHT22;22898;52.102;5.776;2023-04-03T04:40:47;8.00;95.70
36990;DHT22;22898;52.102;5.776;2023-04-03T04:43:13;7.90;95.80
36990;DHT22;22898;52.102;5.776;2023-04-03T04:45:40;7.50;96.30
36990;DHT22;22898;52.102;5.776;2023-04-03T04:48:06;7.40;96.60
36990;DHT22;22898;52.102;5.776;2023-04-03T04:50:32;7.30;96.60
36990;DHT22;22898;52.102;5.776;2023-04-03T04:52:58;7.10;97.00
36990;DHT22;22898;52.102;5.776;2023-04-03T04:55:23;7.10;97.00
36990;DHT22;22898;52.102;5.776;2023-04-03T04:57:49;7.30;96.80
36990;DHT22;22898;52.102;5.776;2023-04-03T05:00:15;7.40;96.60
36990;DHT22;22898;52.102;5.776;2023-04-03T05:02:40;7.50;96.40
36990;DHT22;22898;52.102;5.776;2023-04-03T05:05:07;7.70;96.30
36990;DHT22;22898;52.102;5.776;2023-04-03T05:07:32;7.70;95.90
36990;DHT22;22898;52.102;5.776;2023-04-03T05:09:58;7.60;96.00
36990;DHT22;22898;52.102;5.776;2023-04-03T05:12:23;7.60;96.10
36990;DHT22;22898;52.102;5.776;2023-04-03T05:14:49;7.70;96.10
36990;DHT22;22898;52.102;5.776;2023-04-03T05:17:15;7.50;96.40
36990;DHT22;22898;52.102;5.776;2023-04-03T05:19:40;7.50;96.30
36990;DHT22;22898;52.102;5.776;2023-04-03T05:22:06;7.60;96.10
36990;DHT22;22898;52.102;5.776;2023-04-03T05:24:32;7.70;96.10
36990;DHT22;22898;52.102;5.776;2023-04-03T05:26:58;7.80;96.10
36990;DHT22;22898;52.102;5.776;2023-04-03T05:29:23;7.90;95.60
36990;DHT22;22898;52.102;5.776;2023-04-03T05:31:50;8.00;95.60
36990;DHT22;22898;52.102;5.776;2023-04-03T05:34:16;8.00;95.50
36990;DHT22;22898;52.102;5.776;2023-04-03T05:36:41;8.10;95.40
36990;DHT22;22898;52.102;5.776;2023-04-03T05:39:07;8.30;95.10
36990;DHT22;22898;52.102;5.776;2023-04-03T05:41:33;8.40;95.10
36990;DHT22;22898;52.102;5.776;2023-04-03T05:43:58;8.50;95.00
36990;DHT22;22898;52.102;5.776;2023-04-03T05:46:25;8.60;94.80
36990;DHT22;22898;52.102;5.776;2023-04-03T05:48:51;8.60;94.50
36990;DHT22;22898;52.102;5.776;2023-04-03T05:51:25;8.70;94.70
36990;DHT22;22898;52.102;5.776;2023-04-03T05:53:59;8.80;94.60
36990;DHT22;22898;52.102;5.776;2023-04-03T05:56:26;8.90;94.40
36990;DHT22;22898;52.102;5.776;2023-04-03T05:58:51;9.10;94.10
36990;DHT22;22898;52.102;5.776;2023-04-03T06:01:17;9.00;93.70
36990;DHT22;22898;52.102;5.776;2023-04-03T06:03:42;9.00;94.00
36990;DHT22;22898;52.102;5.776;2023-04-03T06:06:13;8.90;94.30
36990;DHT22;22898;52.102;5.776;2023-04-03T06:08:39;8.90;94.30
36990;DHT22;22898;52.102;5.776;2023-04-03T06:11:04;8.90;94.40
36990;DHT22;22898;52.102;5.776;2023-04-03T06:13:30;8.90;94.50
36990;DHT22;22898;52.102;5.776;2023-04-03T06:15:56;8.90;94.60
36990;DHT22;22898;52.102;5.776;2023-04-03T06:18:22;8.80;94.40
36990;DHT22;22898;52.102;5.776;2023-04-03T06:20:48;8.60;94.60
36990;DHT22;22898;52.102;5.776;2023-04-03T06:23:14;8.40;94.60
36990;DHT22;22898;52.102;5.776;2023-04-03T06:25:39;8.30;95.30
36990;DHT22;22898;52.102;5.776;2023-04-03T06:28:05;8.30;95.30
36990;DHT22;22898;52.102;5.776;2023-04-03T06:30:33;8.40;95.10
36990;DHT22;22898;52.102;5.776;2023-04-03T06:32:58;8.30;94.90
36990;DHT22;22898;52.102;5.776;2023-04-03T06:35:24;8.10;95.60
36990;DHT22;22898;52.102;5.776;2023-04-03T06:37:50;8.10;95.20
36990;DHT22;22898;52.102;5.776;2023-04-03T06:40:21;7.80;95.50
36990;DHT22;22898;52.102;5.776;2023-04-03T06:42:46;7.50;96.10
36990;DHT22;22898;52.102;5.776;2023-04-03T06:45:12;7.80;95.80
36990;DHT22;22898;52.102;5.776;2023-04-03T06:47:38;7.90;95.20
36990;DHT22;22898;52.102;5.776;2023-04-03T06:50:04;7.80;95.40
36990;DHT22;22898;52.102;5.776;2023-04-03T06:52:30;7.50;96.30
36990;DHT22;22898;52.102;5.776;2023-04-03T06:54:56;7.50;96.40
36990;DHT22;22898;52.102;5.776;2023-04-03T06:57:24;7.70;95.80
36990;DHT22;22898;52.102;5.776;2023-04-03T06:59:50;7.80;95.80
36990;DHT22;22898;52.102;5.776;2023-04-03T07:02:16;8.00;95.80
36990;DHT22;22898;52.102;5.776;2023-04-03T07:04:42;8.30;94.60
36990;DHT22;22898;52.102;5.776;2023-04-03T07:07:08;8.10;94.90
36990;DHT22;22898;52.102;5.776;2023-04-03T07:09:34;7.90;94.30
36990;DHT22;22898;52.102;5.776;2023-04-03T07:11:59;7.90;95.00
36990;DHT22;22898;52.102;5.776;2023-04-03T07:14:25;8.00;94.90
36990;DHT22;22898;52.102;5.776;2023-04-03T07:16:51;8.10;94.80
36990;DHT22;22898;52.102;5.776;2023-04-03T07:19:16;7.90;94.20
36990;DHT22;22898;52.102;5.776;2023-04-03T07:21:43;8.00;94.10
36990;DHT22;22898;52.102;5.776;2023-04-03T07:24:10;7.90;93.80
36990;DHT22;22898;52.102;5.776;2023-04-03T07:26:36;8.10;94.10
36990;DHT22;22898;52.102;5.776;2023-04-03T07:29:01;8.00;93.60
36990;DHT22;22898;52.102;5.776;2023-04-03T07:31:27;8.20;93.90
36990;DHT22;22898;52.102;5.776;2023-04-03T07:33:53;7.30;93.90
36990;DHT22;22898;52.102;5.776;2023-04-03T07:36:20;7.60;93.50
36990;DHT22;22898;52.102;5.776;2023-04-03T07:38:47;8.00;92.60
36990;DHT22;22898;52.102;5.776;2023-04-03T07:41:17;7.90;93.00
36990;DHT22;22898;52.102;5.776;2023-04-03T07:43:44;7.70;92.60
36990;DHT22;22898;52.102;5.776;2023-04-03T07:46:10;7.90;93.00
36990;DHT22;22898;52.102;5.776;2023-04-03T07:48:36;7.90;93.00
36990;DHT22;22898;52.102;5.776;2023-04-03T07:51:04;8.20;92.30
36990;DHT22;22898;52.102;5.776;2023-04-03T07:53:30;8.50;91.60
36990;DHT22;22898;52.102;5.776;2023-04-03T07:55:57;8.50;91.10
36990;DHT22;22898;52.102;5.776;2023-04-03T07:58:22;8.80;91.30
36990;DHT22;22898;52.102;5.776;2023-04-03T08:00:48;8.70;91.00
36990;DHT22;22898;52.102;5.776;2023-04-03T08:03:14;8.70;90.60
36990;DHT22;22898;52.102;5.776;2023-04-03T08:05:46;8.70;90.50
36990;DHT22;22898;52.102;5.776;2023-04-03T08:08:13;8.60;90.00
36990;DHT22;22898;52.102;5.776;2023-04-03T08:10:39;8.70;90.00
36990;DHT22;22898;52.102;5.776;2023-04-03T08:13:06;8.80;88.30
36990;DHT22;22898;52.102;5.776;2023-04-03T08:15:32;8.60;88.60
36990;DHT22;22898;52.102;5.776;2023-04-03T08:17:59;8.50;88.20
36990;DHT22;22898;52.102;5.776;2023-04-03T08:20:24;8.70;88.30
36990;DHT22;22898;52.102;5.776;2023-04-03T08:22:50;8.60;86.80
36990;DHT22;22898;52.102;5.776;2023-04-03T08:25:16;8.60;84.20
36990;DHT22;22898;52.102;5.776;2023-04-03T08:27:43;8.90;83.60
36990;DHT22;22898;52.102;5.776;2023-04-03T08:30:08;9.10;81.60
36990;DHT22;22898;52.102;5.776;2023-04-03T08:32:34;9.10;85.50
36990;DHT22;22898;52.102;5.776;2023-04-03T08:35:01;9.00;85.40
36990;DHT22;22898;52.102;5.776;2023-04-03T08:37:27;9.30;83.60
36990;DHT22;22898;52.102;5.776;2023-04-03T08:39:53;9.40;81.00
36990;DHT22;22898;52.102;5.776;2023-04-03T08:47:47;10.20;80.00
36990;DHT22;22898;52.102;5.776;2023-04-03T08:50:17;10.40;77.40
36990;DHT22;22898;52.102;5.776;2023-04-03T08:52:49;10.30;78.20
36990;DHT22;22898;52.102;5.776;2023-04-03T08:55:34;10.00;75.40
36990;DHT22;22898;52.102;5.776;2023-04-03T08:58:16;10.10;77.60
36990;DHT22;22898;52.102;5.776;2023-04-03T09:03:50;10.30;70.60
36990;DHT22;22898;52.102;5.776;2023-04-03T09:06:21;10.20;73.50
36990;DHT22;22898;52.102;5.776;2023-04-03T09:09:07;10.40;67.70
36990;DHT22;22898;52.102;5.776;2023-04-03T09:11:51;10.30;68.30
36990;DHT22;22898;52.102;5.776;2023-04-03T09:19:58;11.00;66.60
36990;DHT22;22898;52.102;5.776;2023-04-03T09:22:28;10.90;66.50
36990;DHT22;22898;52.102;5.776;2023-04-03T09:25:02;10.80;64.90
36990;DHT22;22898;52.102;5.776;2023-04-03T09:27:31;10.80;66.50
36990;DHT22;22898;52.102;5.776;2023-04-03T09:29:57;10.50;62.60
36990;DHT22;22898;52.102;5.776;2023-04-03T09:34:53;10.30;62.90
36990;DHT22;22898;52.102;5.776;2023-04-03T09:37:38;10.10;62.60
36990;DHT22;22898;52.102;5.776;2023-04-03T09:40:11;10.40;63.50
36990;DHT22;22898;52.102;5.776;2023-04-03T09:42:55;10.60;60.00
36990;DHT22;22898;52.102;5.776;2023-04-03T09:45:26;11.20;59.70
36990;DHT22;22898;52.102;5.776;2023-04-03T09:56:27;10.80;55.60
36990;DHT22;22898;52.102;5.776;2023-04-03T10:01:35;10.50;57.40
36990;DHT22;22898;52.102;5.776;2023-04-03T10:06:35;10.80;58.60
36990;DHT22;22898;52.102;5.776;2023-04-03T10:09:16;11.10;56.30
36990;DHT22;22898;52.102;5.776;2023-04-03T10:12:11;10.70;57.70
36990;DHT22;22898;52.102;5.776;2023-04-03T10:14:54;10.80;59.90
36990;DHT22;22898;52.102;5.776;2023-04-03T10:23:02;11.00;60.20
36990;DHT22;22898;52.102;5.776;2023-04-03T10:25:39;11.40;58.20
36990;DHT22;22898;52.102;5.776;2023-04-03T10:28:21;11.20;60.10
36990;DHT22;22898;52.102;5.776;2023-04-03T10:31:01;11.20;59.30
36990;DHT22;22898;52.102;5.776;2023-04-03T10:33:55;11.40;59.30
36990;DHT22;22898;52.102;5.776;2023-04-03T10:36:36;11.20;59.60
36990;DHT22;22898;52.102;5.776;2023-04-03T10:39:21;11.40;60.40
36990;DHT22;22898;52.102;5.776;2023-04-03T10:45:01;11.20;62.10
36990;DHT22;22898;52.102;5.776;2023-04-03T10:52:53;11.40;61.70
36990;DHT22;22898;52.102;5.776;2023-04-03T10:55:37;11.40;62.20
36990;DHT22;22898;52.102;5.776;2023-04-03T10:58:06;11.40;62.80
36990;DHT22;22898;52.102;5.776;2023-04-03T11:00:45;11.60;63.50
36990;DHT22;22898;52.102;5.776;2023-04-03T11:03:16;12.20;63.90
36990;DHT22;22898;52.102;5.776;2023-04-03T11:05:50;12.60;61.60
36990;DHT22;22898;52.102;5.776;2023-04-03T11:11:34;12.60;58.40
36990;DHT22;22898;52.102;5.776;2023-04-03T11:14:14;12.50;60.10
36990;DHT22;22898;52.102;5.776;2023-04-03T11:16:46;12.70;61.70
36990;DHT22;22898;52.102;5.776;2023-04-03T11:19:22;13.00;61.90
36990;DHT22;22898;52.102;5.776;2023-04-03T11:21:57;12.90;58.80
36990;DHT22;22898;52.102;5.776;2023-04-03T11:24:29;13.20;59.60
36990;DHT22;22898;52.102;5.776;2023-04-03T11:26:57;12.80;57.70
36990;DHT22;22898;52.102;5.776;2023-04-03T11:29:32;12.40;59.60
36990;DHT22;22898;52.102;5.776;2023-04-03T11:32:31;11.90;60.00
36990;DHT22;22898;52.102;5.776;2023-04-03T11:35:02;12.20;61.40
36990;DHT22;22898;52.102;5.776;2023-04-03T11:37:35;12.60;58.70
36990;DHT22;22898;52.102;5.776;2023-04-03T11:40:06;12.40;57.70
36990;DHT22;22898;52.102;5.776;2023-04-03T11:42:37;12.00;59.60
36990;DHT22;22898;52.102;5.776;2023-04-03T11:47:55;12.20;60.20
36990;DHT22;22898;52.102;5.776;2023-04-03T11:50:44;12.50;58.70
36990;DHT22;22898;52.102;5.776;2023-04-03T11:58:17;12.80;59.10
36990;DHT22;22898;52.102;5.776;2023-04-03T12:01:03;12.80;57.80
36990;DHT22;22898;52.102;5.776;2023-04-03T12:03:35;12.80;57.80
36990;DHT22;22898;52.102;5.776;2023-04-03T12:26:48;13.20;61.10
36990;DHT22;22898;52.102;5.776;2023-04-03T12:35:19;13.70;58.60
36990;DHT22;22898;52.102;5.776;2023-04-03T12:46:42;13.80;61.30
36990;DHT22;22898;52.102;5.776;2023-04-03T12:51:54;13.50;60.00
36990;DHT22;22898;52.102;5.776;2023-04-03T12:54:32;13.20;59.70
36990;DHT22;22898;52.102;5.776;2023-04-03T12:57:17;13.70;59.60
36990;DHT22;22898;52.102;5.776;2023-04-03T12:59:44;13.90;59.30
36990;DHT22;22898;52.102;5.776;2023-04-03T13:02:22;12.90;59.80
36990;DHT22;22898;52.102;5.776;2023-04-03T13:04:49;12.80;62.30
36990;DHT22;22898;52.102;5.776;2023-04-03T13:07:24;12.80;61.00
36990;DHT22;22898;52.102;5.776;2023-04-03T13:09:58;13.30;60.00
36990;DHT22;22898;52.102;5.776;2023-04-03T13:12:25;13.60;59.50
36990;DHT22;22898;52.102;5.776;2023-04-03T13:14:59;13.60;59.70
36990;DHT22;22898;52.102;5.776;2023-04-03T13:17:26;13.60;59.70
36990;DHT22;22898;52.102;5.776;2023-04-03T13:19:53;13.60;60.90
36990;DHT22;22898;52.102;5.776;2023-04-03T13:22:38;13.50;61.00
36990;DHT22;22898;52.102;5.776;2023-04-03T13:25:11;13.60;59.20
36990;DHT22;22898;52.102;5.776;2023-04-03T13:27:39;13.60;60.10
36990;DHT22;22898;52.102;5.776;2023-04-03T13:30:33;13.60;58.80
36990;DHT22;22898;52.102;5.776;2023-04-03T13:33:02;13.50;59.40
36990;DHT22;22898;52.102;5.776;2023-04-03T13:35:32;13.50;60.20
36990;DHT22;22898;52.102;5.776;2023-04-03T13:40:52;13.20;60.50
36990;DHT22;22898;52.102;5.776;2023-04-03T13:43:28;13.20;62.60
36990;DHT22;22898;52.102;5.776;2023-04-03T13:46:01;13.70;61.50
36990;DHT22;22898;52.102;5.776;2023-04-03T13:48:36;13.50;59.20
36990;DHT22;22898;52.102;5.776;2023-04-03T13:51:23;13.50;60.60
36990;DHT22;22898;52.102;5.776;2023-04-03T13:53:56;13.80;60.30
36990;DHT22;22898;52.102;5.776;2023-04-03T13:59:18;13.90;58.30
36990;DHT22;22898;52.102;5.776;2023-04-03T14:01:50;13.70;57.60
36990;DHT22;22898;52.102;5.776;2023-04-03T14:04:28;13.30;58.70
36990;DHT22;22898;52.102;5.776;2023-04-03T14:06:54;13.10;62.00
36990;DHT22;22898;52.102;5.776;2023-04-03T14:09:22;13.20;60.90
36990;DHT22;22898;52.102;5.776;2023-04-03T14:11:50;13.50;59.70
36990;DHT22;22898;52.102;5.776;2023-04-03T14:14:24;14.10;59.70
36990;DHT22;22898;52.102;5.776;2023-04-03T14:16:55;14.50;59.40
36990;DHT22;22898;52.102;5.776;2023-04-03T14:19:25;14.30;59.20
36990;DHT22;22898;52.102;5.776;2023-04-03T14:21:52;13.90;60.90
36990;DHT22;22898;52.102;5.776;2023-04-03T14:24:19;14.10;59.80
36990;DHT22;22898;52.102;5.776;2023-04-03T14:26:45;14.40;61.10
36990;DHT22;22898;52.102;5.776;2023-04-03T14:29:13;14.10;60.80
36990;DHT22;22898;52.102;5.776;2023-04-03T14:31:40;14.10;62.10
36990;DHT22;22898;52.102;5.776;2023-04-03T14:34:06;14.30;61.10
36990;DHT22;22898;52.102;5.776;2023-04-03T14:36:32;14.30;59.40
36990;DHT22;22898;52.102;5.776;2023-04-03T14:38:58;14.50;60.20
36990;DHT22;22898;52.102;5.776;2023-04-03T14:41:26;14.30;60.50
36990;DHT22;22898;52.102;5.776;2023-04-03T14:43:52;14.00;60.40
36990;DHT22;22898;52.102;5.776;2023-04-03T14:48:51;13.50;63.00
36990;DHT22;22898;52.102;5.776;2023-04-03T14:51:17;13.40;63.30
36990;DHT22;22898;52.102;5.776;2023-04-03T14:53:43;13.20;65.40
36990;DHT22;22898;52.102;5.776;2023-04-03T14:56:21;13.30;64.70
36990;DHT22;22898;52.102;5.776;2023-04-03T14:58:57;13.70;62.60
36990;DHT22;22898;52.102;5.776;2023-04-03T15:01:23;13.90;62.00
36990;DHT22;22898;52.102;5.776;2023-04-03T15:03:49;13.60;63.80
36990;DHT22;22898;52.102;5.776;2023-04-03T15:06:15;13.60;63.50
36990;DHT22;22898;52.102;5.776;2023-04-03T15:08:41;13.70;63.00
36990;DHT22;22898;52.102;5.776;2023-04-03T15:11:08;13.30;65.50
36990;DHT22;22898;52.102;5.776;2023-04-03T15:13:34;13.20;64.90
36990;DHT22;22898;52.102;5.776;2023-04-03T15:15:59;13.10;64.60
36990;DHT22;22898;52.102;5.776;2023-04-03T15:18:27;13.30;64.30
36990;DHT22;22898;52.102;5.776;2023-04-03T15:20:54;13.30;63.90
36990;DHT22;22898;52.102;5.776;2023-04-03T15:23:20;13.70;64.60
36990;DHT22;22898;52.102;5.776;2023-04-03T15:25:51;13.70;64.30
36990;DHT22;22898;52.102;5.776;2023-04-03T15:28:41;13.50;64.10
36990;DHT22;22898;52.102;5.776;2023-04-03T15:31:07;13.40;63.50
36990;DHT22;22898;52.102;5.776;2023-04-03T15:33:34;13.20;63.80
36990;DHT22;22898;52.102;5.776;2023-04-03T15:36:00;13.30;63.70
36990;DHT22;22898;52.102;5.776;2023-04-03T15:38:25;13.00;65.60
36990;DHT22;22898;52.102;5.776;2023-04-03T15:40:51;13.20;65.00
36990;DHT22;22898;52.102;5.776;2023-04-03T15:43:17;13.20;65.50
36990;DHT22;22898;52.102;5.776;2023-04-03T15:45:43;13.10;65.50
36990;DHT22;22898;52.102;5.776;2023-04-03T15:48:10;13.30;66.00
36990;DHT22;22898;52.102;5.776;2023-04-03T15:50:36;13.60;65.70
36990;DHT22;22898;52.102;5.776;2023-04-03T15:53:02;14.10;65.10
36990;DHT22;22898;52.102;5.776;2023-04-03T15:55:29;14.20;66.50
36990;DHT22;22898;52.102;5.776;2023-04-03T15:57:55;14.10;66.10
36990;DHT22;22898;52.102;5.776;2023-04-03T16:00:22;14.10;65.50
36990;DHT22;22898;52.102;5.776;2023-04-03T16:02:50;14.10;65.50
36990;DHT22;22898;52.102;5.776;2023-04-03T16:05:17;14.00;66.10
36990;DHT22;22898;52.102;5.776;2023-04-03T16:07:44;14.50;64.10
36990;DHT22;22898;52.102;5.776;2023-04-03T16:10:11;14.30;65.50
36990;DHT22;22898;52.102;5.776;2023-04-03T16:12:37;14.20;65.60
36990;DHT22;22898;52.102;5.776;2023-04-03T16:15:03;14.10;64.90
36990;DHT22;22898;52.102;5.776;2023-04-03T16:17:31;14.00;64.10
36990;DHT22;22898;52.102;5.776;2023-04-03T16:19:57;14.30;64.30
36990;DHT22;22898;52.102;5.776;2023-04-03T16:22:25;13.90;65.30
36990;DHT22;22898;52.102;5.776;2023-04-03T16:24:51;13.70;65.10
36990;DHT22;22898;52.102;5.776;2023-04-03T16:27:17;13.50;65.00
36990;DHT22;22898;52.102;5.776;2023-04-03T16:29:42;13.40;66.10
36990;DHT22;22898;52.102;5.776;2023-04-03T16:32:08;12.90;65.80
36990;DHT22;22898;52.102;5.776;2023-04-03T16:34:34;12.70;66.80
36990;DHT22;22898;52.102;5.776;2023-04-03T16:37:00;12.60;66.50
36990;DHT22;22898;52.102;5.776;2023-04-03T16:39:26;12.60;67.60
36990;DHT22;22898;52.102;5.776;2023-04-03T16:41:51;12.50;68.70
36990;DHT22;22898;52.102;5.776;2023-04-03T16:44:17;12.70;68.20
36990;DHT22;22898;52.102;5.776;2023-04-03T16:46:43;13.30;67.00
36990;DHT22;22898;52.102;5.776;2023-04-03T16:49:09;13.30;65.60
36990;DHT22;22898;52.102;5.776;2023-04-03T16:51:34;13.90;66.70
36990;DHT22;22898;52.102;5.776;2023-04-03T16:54:00;15.10;62.90
36990;DHT22;22898;52.102;5.776;2023-04-03T16:56:26;16.20;60.40
36990;DHT22;22898;52.102;5.776;2023-04-03T16:58:54;16.20;59.70
36990;DHT22;22898;52.102;5.776;2023-04-03T17:01:21;16.00;60.10
36990;DHT22;22898;52.102;5.776;2023-04-03T17:03:47;15.90;59.40
36990;DHT22;22898;52.102;5.776;2023-04-03T17:06:18;15.50;61.60
36990;DHT22;22898;52.102;5.776;2023-04-03T17:08:45;15.00;60.70
36990;DHT22;22898;52.102;5.776;2023-04-03T17:11:12;14.80;62.20
36990;DHT22;22898;52.102;5.776;2023-04-03T17:13:37;14.60;61.80
36990;DHT22;22898;52.102;5.776;2023-04-03T17:16:06;14.10;62.50
36990;DHT22;22898;52.102;5.776;2023-04-03T17:18:32;13.50;63.60
36990;DHT22;22898;52.102;5.776;2023-04-03T17:21:00;13.50;64.60
36990;DHT22;22898;52.102;5.776;2023-04-03T17:23:27;13.50;64.50
36990;DHT22;22898;52.102;5.776;2023-04-03T17:25:54;13.60;64.70
36990;DHT22;22898;52.102;5.776;2023-04-03T17:28:21;13.40;65.20
36990;DHT22;22898;52.102;5.776;2023-04-03T17:30:49;13.70;64.30
36990;DHT22;22898;52.102;5.776;2023-04-03T17:33:15;13.70;66.00
36990;DHT22;22898;52.102;5.776;2023-04-03T17:35:41;13.30;65.20
36990;DHT22;22898;52.102;5.776;2023-04-03T17:38:06;13.50;65.80
36990;DHT22;22898;52.102;5.776;2023-04-03T17:40:32;13.00;65.20